Austin, Pennsylvania
Current Conditions -  °F | °C
As of 8:53 PM on Saturday 20 Dec 2014 (Local Time) from KBFD Reporting Station
Overcast Overcast  
Wind Chill: -5°   Ceiling: 700
Heat Index: -5°   Visibility: 10mi
Dew Point: -8°   Wind: 0mph
Humidity: 81%   Direction: NA
Pressure: 30.19"   Gusts: NA
Location:  41.63°N, 78.09°W
Report Text: KBFD 210153Z AUTO 00000KT 10SM OVC007 M05/M08 A3019 RMK AO2 SLP251 T10501078
Loading
Personal Weather Stations






























Interactive Weather Map New forecast layout! Learn more

10-Day Weather Forecast

Advertisements
Track Severe Weather on mobile